Terminal Aerodrome Forecast
Issued by NWS Charleston, WV

Current Version | Previous Version | Graphics & Text | Print | Product List | Glossary On
Versions: 1 2 3 4 5 6 7 8 9 10 11 12 13 14 15 16 17 18 19 20 21 22 23 24
000
FTUS41 KRLX 181700
TAFPKB
TAF
KPKB 181734Z 1818/1918 06005KT P6SM SCT025 BKN070
     FM182300 00000KT 6SM HZ BR BKN035
     FM190700 00000KT 2SM BR BKN001
     FM191300 19003KT P6SM BKN060=

USA.gov is the U.S. government's official web portal to all federal, state and local government web resources and services.